Winter Park, Colorado
Current Conditions -  °F | °C
As of 6:35 PM on Thursday 27 Nov 2014 (Local Time) from KBDU Reporting Station
Clear Clear  
Wind Chill: 55°   Ceiling: Unl
Heat Index: 55°   Visibility: 10mi
Dew Point: 21°   Wind: 8mph
Humidity: 26%   Direction: 90°E
Pressure: 30.07"   Gusts: NA
Location:  39.89°N, 105.76°W
Report Text: KBDU 280135Z AUTO 09007KT 10SM CLR 13/M06 A3007 RMK AO2
Loading
Personal Weather Stations






























Interactive Weather Map New forecast layout! Learn more

10-Day Weather Forecast

Advertisements
Track Severe Weather on mobile